Time;durP1;ratioP1;P1;durP2;ratioP2;P2;SDS_P1;SDS_P2;PMS_P1;PMS_P2;Temp;Humidity;BMP_temperature;BMP_pressure;BME280_temperature;BME280_humidity;BME280_pressure;Samples;Min_cycle;Max_cycle;Signal;HPM_P1;HPM_P2
2022/08/04 00:03:12;;;;;;;11.63;10.43;;;28.20;51.20;;;;;;4669725;57;21026;-31
2022/08/04 00:08:44;;;;;;;10.50;9.50;;;28.20;51.30;;;;;;4761905;57;21073;-35
2022/08/04 00:13:53;;;;;;;11.35;10.15;;;28.20;50.90;;;;;;4683740;56;21505;-31
2022/08/04 00:19:02;;;;;;;11.80;10.43;;;28.20;51.40;;;;;;4563980;61;21513;-33
2022/08/04 00:24:04;;;;;;;11.18;9.90;;;28.20;51.40;;;;;;4579478;57;21002;-32
2022/08/04 00:29:05;;;;;;;10.55;9.35;;;28.20;51.30;;;;;;4574619;57;21011;-29
2022/08/04 00:34:09;;;;;;;10.95;9.95;;;28.20;51.30;;;;;;4773716;57;21030;-30
2022/08/04 00:39:12;;;;;;;11.27;10.18;;;28.20;51.50;;;;;;4676800;57;21074;-29
2022/08/04 00:44:29;;;;;;;10.77;9.68;;;28.20;51.10;;;;;;4656754;57;21046;-32
2022/08/04 00:51:15;;;;;;;10.85;9.70;;;28.20;51.30;;;;;;4721750;56;21026;-30
2022/08/04 00:59:38;;;;;;;9.57;8.68;;;28.20;51.10;;;;;;4656376;56;21564;-31
2022/08/04 01:05:05;;;;;;;10.30;9.40;;;28.20;51.00;;;;;;4752952;57;21070;-33
2022/08/04 01:11:15;;;;;;;9.85;8.85;;;28.20;51.20;;;;;;4756068;56;21083;-31
2022/08/04 01:16:17;;;;;;;10.35;9.30;;;28.20;51.20;;;;;;4733773;57;21010;-30
2022/08/04 01:24:18;;;;;;;10.00;8.98;;;28.20;51.00;;;;;;4834548;56;21027;-30
2022/08/04 01:29:25;;;;;;;8.90;8.00;;;28.20;51.20;;;;;;4564594;61;21661;-31
2022/08/04 01:34:30;;;;;;;9.93;9.02;;;28.20;51.00;;;;;;4787131;56;21095;-30
2022/08/04 01:39:40;;;;;;;9.80;8.88;;;28.20;50.90;;;;;;5002356;56;21013;-31
2022/08/04 01:44:41;;;;;;;9.57;8.57;;;28.20;51.00;;;;;;4662119;56;21038;-34
2022/08/04 01:49:48;;;;;;;9.00;8.20;;;28.20;51.00;;;;;;4718696;56;21022;-32
2022/08/04 01:54:50;;;;;;;9.05;8.15;;;28.20;50.90;;;;;;4564947;57;21054;-31
2022/08/04 01:59:51;;;;;;;9.57;8.68;;;28.20;51.00;;;;;;4642914;57;21059;-31
2022/08/04 02:04:52;;;;;;;9.15;8.25;;;28.20;50.90;;;;;;4822521;56;21026;-33
2022/08/04 02:10:26;;;;;;;8.85;7.95;;;28.20;51.00;;;;;;4728661;57;21521;-32
2022/08/04 02:15:35;;;;;;;9.40;8.48;;;28.20;50.90;;;;;;5011343;57;21047;-33
2022/08/04 02:20:44;;;;;;;8.90;8.02;;;28.20;51.00;;;;;;4608727;56;21035;-32
2022/08/04 02:25:52;;;;;;;8.40;7.60;;;28.20;51.00;;;;;;4759941;56;21015;-33
2022/08/04 02:33:50;;;;;;;9.05;8.25;;;28.20;51.00;;;;;;4622399;56;21093;-33
2022/08/04 02:39:10;;;;;;;8.73;7.82;;;28.20;51.00;;;;;;4637602;57;21086;-30
2022/08/04 02:44:13;;;;;;;8.38;7.03;;;28.20;51.00;;;;;;5011332;56;21584;-30
2022/08/04 02:49:14;;;;;;;8.15;7.30;;;28.20;51.00;;;;;;4641476;57;21034;-32
2022/08/04 02:54:18;;;;;;;7.90;7.20;;;28.20;51.70;;;;;;4596606;57;21130;-31
2022/08/04 02:59:25;;;;;;;8.23;7.43;;;28.20;51.00;;;;;;5011561;57;21023;-29
2022/08/04 03:04:43;;;;;;;8.75;7.95;;;28.10;50.80;;;;;;4739981;56;21078;-30
2022/08/04 03:11:36;;;;;;;8.68;7.78;;;28.20;51.00;;;;;;4581732;56;21014;-30
2022/08/04 03:18:48;;;;;;;9.02;8.02;;;28.20;51.10;;;;;;4867040;57;21162;-30
2022/08/04 03:24:23;;;;;;;8.00;7.22;;;28.20;51.00;;;;;;4749020;57;21031;-29
2022/08/04 03:30:03;;;;;;;8.02;7.28;;;28.20;51.10;;;;;;4694818;57;21082;-30
2022/08/04 03:35:35;;;;;;;7.60;6.90;;;28.20;51.00;;;;;;4795833;57;21026;-31
2022/08/04 03:47:42;;;;;;;7.93;7.12;;;28.10;51.10;;;;;;4609126;57;21600;-30
2022/08/04 03:54:08;;;;;;;8.05;7.25;;;28.10;50.90;;;;;;4593979;57;21549;-30
2022/08/04 04:00:41;;;;;;;8.27;7.47;;;28.10;50.90;;;;;;4648118;56;21480;-31
2022/08/04 04:06:07;;;;;;;8.75;7.65;;;28.10;50.90;;;;;;4599444;57;21030;-31
2022/08/04 04:11:18;;;;;;;;;;;28.10;50.80;;;;;;4571955;57;21038;-29
2022/08/04 04:16:37;;;;;;;7.78;7.05;;;28.10;50.90;;;;;;4588919;57;20056;-31
2022/08/04 04:23:39;;;;;;;8.27;7.47;;;28.10;50.80;;;;;;4564574;60;21062;-30
2022/08/04 04:29:06;;;;;;;8.90;7.60;;;28.10;50.70;;;;;;5012003;56;20990;-28
2022/08/04 04:35:18;;;;;;;7.90;7.15;;;28.10;50.80;;;;;;4619482;56;21078;-32
2022/08/04 04:40:52;;;;;;;8.65;7.80;;;28.10;50.80;;;;;;4632699;56;21567;-31
2022/08/04 04:47:55;;;;;;;8.40;7.40;;;28.10;50.80;;;;;;4621666;56;21055;-33
2022/08/04 04:53:15;;;;;;;7.72;7.03;;;28.10;50.80;;;;;;4597457;57;21030;-31
2022/08/04 04:58:19;;;;;;;8.25;7.45;;;28.10;50.70;;;;;;4606903;57;21085;-30
2022/08/04 05:03:40;;;;;;;8.52;7.62;;;28.10;50.80;;;;;;4640354;56;21098;-34
2022/08/04 05:11:43;;;;;;;9.38;8.05;;;28.10;50.90;;;;;;4564533;61;21062;-31
2022/08/04 05:16:51;;;;;;;8.07;7.28;;;28.10;50.70;;;;;;4615156;57;21094;-30
2022/08/04 05:22:58;;;;;;;9.23;8.02;;;28.10;50.90;;;;;;4724585;57;21093;-30
2022/08/04 05:28:25;;;;;;;8.52;7.68;;;28.10;50.70;;;;;;4707928;57;21034;-32
2022/08/04 05:33:38;;;;;;;8.60;7.80;;;28.10;50.80;;;;;;4670175;57;21074;-31
2022/08/04 05:38:42;;;;;;;8.15;7.45;;;28.10;50.80;;;;;;4678571;57;21028;-31
2022/08/04 05:43:44;;;;;;;8.15;7.35;;;28.10;50.80;;;;;;4564364;60;21509;-30
2022/08/04 05:48:46;;;;;;;9.25;7.15;;;28.10;50.80;;;;;;4818732;57;21046;-30
2022/08/04 05:53:48;;;;;;;9.55;7.15;;;28.10;50.80;;;;;;4624682;57;21022;-30
2022/08/04 05:58:51;;;;;;;8.00;7.20;;;28.10;50.80;;;;;;4582721;57;21038;-31
2022/08/04 06:03:54;;;;;;;8.15;7.32;;;28.10;50.80;;;;;;4564358;60;21073;-30
2022/08/04 06:08:55;;;;;;;7.93;7.10;;;28.10;50.80;;;;;;4627043;57;21050;-29
2022/08/04 06:14:00;;;;;;;8.40;7.60;;;28.10;51.10;;;;;;4646935;57;21540;-28
2022/08/04 06:19:05;;;;;;;9.07;7.30;;;28.10;50.90;;;;;;4656833;56;21572;-28
2022/08/04 06:24:10;;;;;;;8.00;7.20;;;28.10;50.80;;;;;;4629396;56;21081;-30
2022/08/04 06:29:35;;;;;;;10.48;7.62;;;28.10;50.90;;;;;;4985140;56;21002;-30
2022/08/04 06:34:37;;;;;;;7.82;7.10;;;28.10;50.90;;;;;;4771715;56;21552;-30
2022/08/04 06:39:38;;;;;;;8.18;7.37;;;28.10;50.90;;;;;;4564031;60;21014;-30
2022/08/04 06:44:41;;;;;;;8.75;7.90;;;28.10;50.90;;;;;;4723591;57;21588;-30
2022/08/04 06:49:42;;;;;;;8.95;7.72;;;28.10;50.80;;;;;;4565862;57;21018;-31
2022/08/04 06:54:45;;;;;;;8.48;7.57;;;28.10;50.80;;;;;;4596133;57;21014;-32
2022/08/04 06:59:50;;;;;;;19.33;10.57;;;28.10;50.90;;;;;;4730394;57;21038;-27
2022/08/04 07:04:51;;;;;;;19.87;10.63;;;28.10;50.40;;;;;;4564012;61;21083;-28
2022/08/04 07:09:53;;;;;;;16.90;12.27;;;28.10;50.70;;;;;;4708270;57;21078;-28
2022/08/04 07:14:56;;;;;;;16.73;14.13;;;27.80;50.10;;;;;;4782602;57;21130;-29
2022/08/04 07:19:57;;;;;;;20.23;15.30;;;27.40;49.30;;;;;;4607713;57;21053;-31
2022/08/04 07:24:59;;;;;;;25.23;19.37;;;27.20;49.20;;;;;;4617014;57;21030;-31
2022/08/04 07:30:00;;;;;;;29.60;23.38;;;27.00;48.60;;;;;;4626980;57;21568;-27
2022/08/04 07:35:01;;;;;;;39.85;30.75;;;26.90;48.40;;;;;;4748663;57;21065;-27
2022/08/04 07:40:04;;;;;;;41.37;34.90;;;26.70;48.20;;;;;;4583387;57;21572;-29
2022/08/04 07:45:06;;;;;;;44.28;38.33;;;26.60;48.20;;;;;;4564972;57;21532;-23
2022/08/04 07:50:11;;;;;;;44.38;37.03;;;26.60;48.10;;;;;;4715308;57;21078;-28
2022/08/04 07:55:13;;;;;;;45.92;37.58;;;26.50;48.30;;;;;;4571366;57;21132;-36
2022/08/04 08:00:14;;;;;;;50.90;39.05;;;26.50;48.30;;;;;;4632810;57;21039;-26
2022/08/04 08:05:18;;;;;;;50.78;42.05;;;26.50;48.30;;;;;;4609719;57;21039;-28
2022/08/04 08:10:19;;;;;;;49.38;42.25;;;26.50;48.30;;;;;;4563777;61;21503;-28
2022/08/04 08:15:21;;;;;;;51.42;42.25;;;26.50;48.40;;;;;;4563120;58;21552;-28
2022/08/04 08:20:21;;;;;;;54.47;41.65;;;26.50;48.30;;;;;;4563618;61;21577;-31
2022/08/04 08:25:22;;;;;;;49.20;40.25;;;26.40;48.10;;;;;;4563529;61;21067;-28
2022/08/04 08:30:24;;;;;;;45.12;36.55;;;26.40;48.20;;;;;;4639549;57;21025;-29
2022/08/04 08:35:28;;;;;;;38.67;32.13;;;26.40;48.30;;;;;;4594025;57;21103;-29
2022/08/04 08:40:39;;;;;;;40.08;29.67;;;26.40;48.00;;;;;;4767162;57;21019;-30
2022/08/04 08:46:24;;;;;;;38.00;29.05;;;26.40;48.50;;;;;;4723883;57;21050;-28
2022/08/04 08:51:57;;;;;;;40.28;31.67;;;26.30;48.10;;;;;;4579115;57;21014;-27
2022/08/04 09:04:02;;;;;;;44.70;34.83;;;26.30;47.70;;;;;;4601262;57;21018;-29
2022/08/04 09:09:17;;;;;;;56.78;42.13;;;26.20;47.10;;;;;;4566077;57;21091;-29
2022/08/04 09:14:27;;;;;;;52.85;42.70;;;26.20;46.40;;;;;;4601945;57;21122;-30
2022/08/04 09:19:38;;;;;;;48.53;39.60;;;26.20;46.30;;;;;;4788395;57;21023;-28
2022/08/04 09:25:06;;;;;;;44.88;34.75;;;26.20;45.80;;;;;;4568082;57;21042;-29
2022/08/04 09:30:09;;;;;;;35.10;28.83;;;26.20;45.90;;;;;;4563952;61;21018;-26
2022/08/04 09:35:36;;;;;;;32.78;27.20;;;26.20;45.70;;;;;;4839516;57;21075;-26
2022/08/04 09:40:48;;;;;;;35.22;29.65;;;26.20;45.40;;;;;;4564328;61;21002;-29
2022/08/04 09:46:05;;;;;;;35.53;28.85;;;26.20;45.20;;;;;;4617983;57;21034;-26
2022/08/04 09:51:31;;;;;;;33.13;27.17;;;26.20;45.20;;;;;;4714596;57;21508;-26
2022/08/04 09:56:41;;;;;;;32.80;26.00;;;26.30;45.10;;;;;;4811189;57;21132;-30
2022/08/04 10:01:43;;;;;;;29.37;23.95;;;26.30;45.00;;;;;;4576659;57;21054;-29
2022/08/04 10:07:08;;;;;;;28.10;22.80;;;26.30;44.90;;;;;;4565801;57;21034;-29
2022/08/04 10:14:07;;;;;;;25.92;20.35;;;26.30;44.90;;;;;;4573674;57;21113;-30
2022/08/04 10:19:31;;;;;;;20.58;17.65;;;26.20;44.60;;;;;;4630302;57;21010;-28
2022/08/04 10:24:54;;;;;;;22.58;18.17;;;26.20;44.70;;;;;;4611473;57;21492;-29
2022/08/04 10:30:10;;;;;;;20.55;16.85;;;26.20;44.70;;;;;;4638344;57;20998;-28
2022/08/04 10:35:25;;;;;;;25.30;18.13;;;26.10;44.50;;;;;;4701006;57;21573;-28
2022/08/04 10:40:35;;;;;;;25.77;21.12;;;26.10;44.40;;;;;;4563647;61;21584;-28
2022/08/04 10:45:54;;;;;;;23.75;20.95;;;26.10;44.50;;;;;;4727157;57;21102;-29
2022/08/04 10:53:52;;;;;;;26.87;21.10;;;26.10;44.30;;;;;;4608860;57;21046;-28
2022/08/04 10:58:59;;;;;;;28.92;20.70;;;26.40;45.90;;;;;;4564154;61;21520;-28
2022/08/04 11:04:07;;;;;;;25.35;19.98;;;27.00;45.00;;;;;;4632022;57;21066;-27
2022/08/04 11:09:09;;;;;;;24.80;19.40;;;27.30;44.70;;;;;;4783752;57;21069;-30
2022/08/04 11:14:28;;;;;;;23.73;19.55;;;27.40;44.40;;;;;;4616603;57;21067;-29
2022/08/04 11:19:51;;;;;;;25.45;20.08;;;27.60;44.40;;;;;;4767509;57;21079;-29
2022/08/04 11:25:31;;;;;;;24.25;19.65;;;27.70;44.20;;;;;;4564209;61;21015;-28
2022/08/04 11:30:44;;;;;;;22.40;19.98;;;27.80;44.10;;;;;;4564372;59;21087;-35
2022/08/04 11:36:01;;;;;;;22.15;19.75;;;27.90;44.00;;;;;;4792553;57;21544;-28
2022/08/04 11:41:11;;;;;;;20.80;18.52;;;27.90;43.90;;;;;;4599337;57;21034;-29
2022/08/04 11:46:20;;;;;;;21.45;17.85;;;27.80;43.20;;;;;;4613468;57;21014;-28
2022/08/04 11:51:23;;;;;;;20.15;16.40;;;27.20;43.10;;;;;;4719601;57;21504;-29
2022/08/04 11:56:24;;;;;;;17.00;15.07;;;26.80;43.30;;;;;;4640539;57;21015;-30
2022/08/04 12:01:37;;;;;;;17.55;13.82;;;26.70;43.70;;;;;;4767923;57;21034;-30
2022/08/04 12:08:14;;;;;;;16.15;12.73;;;26.70;43.60;;;;;;4624180;57;21059;-28
2022/08/04 12:13:31;;;;;;;12.73;11.43;;;26.60;43.50;;;;;;4664124;57;21078;-28
2022/08/04 12:18:44;;;;;;;15.68;12.23;;;26.60;43.30;;;;;;4628410;57;21150;-27
2022/08/04 12:23:49;;;;;;;18.70;15.15;;;26.50;43.30;;;;;;4592549;57;21180;-26
2022/08/04 12:28:59;;;;;;;19.40;16.45;;;26.50;43.30;;;;;;4661137;57;21064;-26
2022/08/04 12:34:30;;;;;;;22.42;17.25;;;26.40;43.30;;;;;;4676010;57;21043;-28
2022/08/04 12:39:34;;;;;;;20.77;16.20;;;26.30;43.40;;;;;;4659543;57;21477;-29
2022/08/04 12:44:37;;;;;;;19.02;14.57;;;26.30;43.30;;;;;;4556161;57;45740;-28
2022/08/04 12:49:43;;;;;;;18.92;14.50;;;26.40;43.30;;;;;;4685394;57;21016;-27
2022/08/04 12:54:46;;;;;;;14.57;12.63;;;26.30;43.20;;;;;;4615584;60;21047;-24
2022/08/04 12:59:46;;;;;;;13.48;11.25;;;26.30;43.20;;;;;;4785385;56;21035;-36
2022/08/04 13:04:49;;;;;;;13.05;11.65;;;26.30;43.00;;;;;;4811549;56;21047;-28
2022/08/04 13:09:50;;;;;;;14.18;11.52;;;26.30;43.20;;;;;;4807333;56;21027;-29
2022/08/04 13:14:58;;;;;;;13.55;11.43;;;26.40;43.90;;;;;;4715285;56;21694;-29
2022/08/04 13:19:59;;;;;;;15.23;11.55;;;26.90;43.10;;;;;;4615651;58;21022;-26
2022/08/04 13:25:00;;;;;;;15.50;11.75;;;27.30;42.70;;;;;;4710203;56;21151;-29
2022/08/04 13:30:01;;;;;;;15.48;11.77;;;27.40;42.40;;;;;;4802730;56;21107;-29
2022/08/04 13:35:04;;;;;;;13.85;11.57;;;27.60;42.20;;;;;;4611711;57;21520;-28
2022/08/04 13:40:11;;;;;;;14.20;12.00;;;27.30;42.30;;;;;;4645221;56;21549;-25
2022/08/04 13:45:14;;;;;;;17.05;13.13;;;26.80;42.60;;;;;;4710666;56;21047;-25
2022/08/04 13:50:28;;;;;;;15.43;12.65;;;26.70;42.80;;;;;;4739131;56;21099;-30
2022/08/04 13:55:36;;;;;;;15.52;13.93;;;26.50;42.80;;;;;;4869858;56;21050;-26
2022/08/04 14:00:48;;;;;;;15.40;13.10;;;27.30;41.90;;;;;;4858466;56;21131;-26
2022/08/04 14:06:49;;;;;;;16.80;12.60;;;27.80;42.60;;;;;;4616870;56;21081;-31
2022/08/04 14:12:02;;;;;;;13.88;12.35;;;27.90;43.10;;;;;;4671705;56;21059;-31
2022/08/04 14:17:08;;;;;;;18.27;12.85;;;27.90;42.80;;;;;;4715796;56;21027;-32
2022/08/04 14:22:26;;;;;;;14.20;12.57;;;27.90;43.30;;;;;;4671384;56;21060;-31
2022/08/04 14:27:28;;;;;;;14.13;12.27;;;28.00;43.60;;;;;;4891277;56;21486;-32
2022/08/04 14:32:29;;;;;;;14.38;12.27;;;28.00;43.60;;;;;;4686720;56;21162;-33
2022/08/04 14:37:29;;;;;;;14.57;12.10;;;28.00;43.70;;;;;;4636820;56;21091;-34
2022/08/04 14:42:45;;;;;;;15.10;13.40;;;28.00;43.90;;;;;;4616045;57;21629;-32
2022/08/04 14:47:46;;;;;;;13.83;11.70;;;28.00;43.80;;;;;;4702105;56;21482;-33
2022/08/04 14:52:47;;;;;;;13.52;12.18;;;28.10;43.90;;;;;;4689256;56;21055;-30
2022/08/04 14:57:49;;;;;;;14.80;12.30;;;28.00;43.80;;;;;;4861085;56;21026;-30
2022/08/04 15:02:52;;;;;;;12.82;11.48;;;28.10;43.80;;;;;;4685244;56;21019;-31
2022/08/04 15:07:56;;;;;;;14.15;12.65;;;28.10;43.80;;;;;;4666505;56;21525;-30
2022/08/04 15:12:57;;;;;;;13.05;11.85;;;28.10;43.90;;;;;;4671192;56;21134;-29
2022/08/04 15:17:59;;;;;;;13.98;12.35;;;28.10;44.00;;;;;;4825887;56;21071;-30
2022/08/04 15:23:02;;;;;;;13.60;12.10;;;28.20;44.10;;;;;;4659362;56;21015;-31
2022/08/04 15:28:05;;;;;;;14.18;11.80;;;28.20;44.10;;;;;;4616263;60;21473;-30
2022/08/04 15:33:08;;;;;;;12.35;10.93;;;28.20;44.10;;;;;;4907566;56;21019;-30
2022/08/04 15:38:24;;;;;;;13.13;11.80;;;28.20;44.20;;;;;;4902672;56;21082;-30
2022/08/04 15:45:31;;;;;;;13.18;11.80;;;28.20;44.20;;;;;;4815301;56;21083;-31
2022/08/04 15:50:32;;;;;;;13.50;11.60;;;28.20;44.30;;;;;;4616446;56;21042;-32
2022/08/04 15:55:41;;;;;;;13.10;11.70;;;28.20;44.40;;;;;;4878456;56;21533;-28
2022/08/04 16:01:14;;;;;;;13.02;11.73;;;28.20;44.40;;;;;;4663043;56;21079;-31
2022/08/04 16:07:04;;;;;;;12.48;11.23;;;28.30;44.40;;;;;;4692448;56;21525;-29
2022/08/04 16:12:05;;;;;;;12.88;11.55;;;28.20;44.50;;;;;;4614787;60;21684;-29
2022/08/04 16:17:16;;;;;;;12.23;11.02;;;28.20;44.50;;;;;;4665458;56;21094;-31
2022/08/04 16:22:38;;;;;;;12.50;11.30;;;28.30;44.70;;;;;;4965056;56;21067;-30
2022/08/04 16:27:41;;;;;;;12.52;11.30;;;28.30;44.70;;;;;;4884756;56;21027;-31
2022/08/04 16:32:47;;;;;;;12.15;10.95;;;28.30;44.80;;;;;;4636813;56;21087;-32
2022/08/04 16:37:52;;;;;;;11.70;10.60;;;28.30;44.80;;;;;;4959327;56;21486;-30
2022/08/04 16:42:57;;;;;;;11.65;10.45;;;28.30;44.90;;;;;;4700850;56;21019;-30
2022/08/04 16:48:06;;;;;;;12.35;11.15;;;28.30;44.90;;;;;;4733557;56;21019;-31
2022/08/04 16:53:11;;;;;;;12.02;10.90;;;28.30;44.90;;;;;;4615343;60;21645;-34
2022/08/04 16:58:13;;;;;;;11.98;10.77;;;28.30;45.00;;;;;;4916004;56;21573;-34
2022/08/04 17:03:13;;;;;;;11.43;10.32;;;28.30;45.00;;;;;;4787979;56;21031;-31
2022/08/04 17:08:19;;;;;;;12.05;10.77;;;28.30;45.00;;;;;;4618929;56;21031;-34
2022/08/04 17:13:44;;;;;;;12.52;11.32;;;28.30;45.00;;;;;;4940998;56;21564;-31
2022/08/04 17:18:52;;;;;;;12.27;11.07;;;28.30;45.10;;;;;;4723506;56;21282;-31
2022/08/04 17:23:58;;;;;;;11.80;10.70;;;28.30;45.10;;;;;;4764172;56;21034;-31
2022/08/04 17:29:00;;;;;;;11.90;10.80;;;28.30;45.10;;;;;;4670792;56;21494;-31
2022/08/04 17:34:12;;;;;;;12.00;10.90;;;28.30;45.20;;;;;;4707218;56;21589;-34
2022/08/04 17:39:16;;;;;;;12.52;11.10;;;28.40;45.30;;;;;;4623625;56;21039;-33
2022/08/04 17:44:17;;;;;;;11.88;10.77;;;28.40;45.30;;;;;;4618269;56;21577;-32
2022/08/04 17:49:20;;;;;;;11.77;10.68;;;28.30;45.30;;;;;;4677030;56;21099;-32
2022/08/04 17:54:32;;;;;;;11.68;10.57;;;28.40;45.40;;;;;;4615438;60;22083;-30
2022/08/04 17:59:44;;;;;;;11.68;10.57;;;28.30;45.30;;;;;;4640003;56;21537;-30
2022/08/04 18:04:50;;;;;;;12.45;11.20;;;28.30;45.40;;;;;;4630268;56;21086;-30
2022/08/04 18:09:55;;;;;;;10.93;9.95;;;28.40;45.40;;;;;;4943347;56;21209;-30
2022/08/04 18:15:19;;;;;;;11.43;10.40;;;28.30;45.40;;;;;;4751090;56;21528;-31
2022/08/04 18:20:23;;;;;;;11.75;10.65;;;28.40;45.50;;;;;;4822192;56;21099;-30
2022/08/04 18:25:24;;;;;;;11.35;10.27;;;28.40;45.60;;;;;;4770423;56;21090;-31
2022/08/04 18:30:28;;;;;;;11.75;10.65;;;28.30;45.60;;;;;;4728545;56;21106;-31
2022/08/04 18:35:29;;;;;;;11.60;10.60;;;28.30;45.60;;;;;;4655523;56;21513;-35
2022/08/04 18:40:30;;;;;;;11.30;10.30;;;28.30;45.60;;;;;;4649635;56;21594;-33
2022/08/04 18:45:31;;;;;;;11.40;10.30;;;28.30;45.80;;;;;;4866374;56;21124;-35
2022/08/04 18:50:32;;;;;;;12.27;11.07;;;28.40;45.80;;;;;;4696560;56;21549;-33
2022/08/04 18:55:33;;;;;;;11.88;10.68;;;28.30;45.80;;;;;;4740279;56;21043;-31
2022/08/04 19:00:34;;;;;;;11.45;10.45;;;28.40;45.80;;;;;;4615784;58;21098;-30
2022/08/04 19:05:34;;;;;;;11.18;10.18;;;28.30;45.80;;;;;;4660508;56;21573;-33
2022/08/04 19:10:35;;;;;;;11.82;10.65;;;28.30;45.80;;;;;;4615407;60;21090;-31
2022/08/04 19:15:36;;;;;;;11.57;10.48;;;28.30;45.90;;;;;;4621495;56;21079;-33
2022/08/04 19:20:37;;;;;;;11.10;10.05;;;28.40;46.00;;;;;;4615524;57;21039;-34
2022/08/04 19:25:38;;;;;;;11.40;10.40;;;28.40;46.00;;;;;;4764162;56;21505;-33
2022/08/04 19:30:39;;;;;;;11.35;10.27;;;28.40;46.10;;;;;;4807456;56;21501;-34
2022/08/04 19:35:40;;;;;;;11.05;10.05;;;28.40;46.10;;;;;;4713498;56;21055;-33
2022/08/04 19:40:42;;;;;;;11.48;10.43;;;28.30;46.10;;;;;;4642130;56;21168;-34
2022/08/04 19:45:43;;;;;;;11.32;10.23;;;28.40;46.20;;;;;;5001440;56;21594;-31
2022/08/04 19:50:44;;;;;;;10.95;9.95;;;28.40;46.20;;;;;;4979543;56;21099;-29
2022/08/04 19:55:45;;;;;;;11.20;10.10;;;28.40;46.20;;;;;;4860326;56;21498;-32
2022/08/04 20:00:45;;;;;;;11.63;10.48;;;28.30;46.20;;;;;;4615728;60;21078;-35
2022/08/04 20:05:47;;;;;;;11.32;10.32;;;28.30;46.30;;;;;;4708764;56;21506;-33
2022/08/04 20:10:47;;;;;;;10.88;9.85;;;28.40;46.30;;;;;;4615834;57;21565;-35
2022/08/04 20:15:48;;;;;;;11.15;10.05;;;28.40;46.40;;;;;;4659406;56;21038;-33
2022/08/04 20:20:49;;;;;;;11.02;9.95;;;28.40;46.40;;;;;;4698818;56;21084;-29
2022/08/04 20:25:50;;;;;;;10.85;9.85;;;28.30;46.40;;;;;;4615723;60;21068;-30
2022/08/04 20:30:51;;;;;;;11.15;10.07;;;28.40;46.50;;;;;;4788805;56;21463;-30
2022/08/04 20:35:51;;;;;;;10.48;9.57;;;28.40;46.50;;;;;;4648645;56;21090;-32
2022/08/04 20:40:52;;;;;;;10.80;9.80;;;28.40;46.60;;;;;;5001671;56;21076;-34
2022/08/04 20:45:53;;;;;;;10.65;9.65;;;28.40;46.60;;;;;;4679161;56;21087;-34
2022/08/04 20:50:55;;;;;;;10.57;9.60;;;28.40;46.60;;;;;;4708553;56;21119;-30
2022/08/04 20:55:55;;;;;;;10.93;9.80;;;28.30;46.60;;;;;;4615565;60;21043;-30
2022/08/04 21:00:56;;;;;;;11.25;10.15;;;28.30;46.60;;;;;;4675161;56;21088;-30
2022/08/04 21:05:57;;;;;;;10.95;9.95;;;28.30;46.60;;;;;;4735210;56;21103;-32
2022/08/04 21:10:58;;;;;;;9.95;9.00;;;28.40;46.70;;;;;;4628997;56;21012;-30
2022/08/04 21:15:59;;;;;;;11.25;10.15;;;28.30;46.70;;;;;;4700916;56;21083;-31
2022/08/04 21:21:00;;;;;;;9.77;8.88;;;28.30;46.70;;;;;;4730230;56;21023;-31
2022/08/04 21:26:02;;;;;;;10.20;9.20;;;28.40;46.80;;;;;;4620045;56;21561;-31
2022/08/04 21:31:03;;;;;;;10.55;9.65;;;28.30;46.80;;;;;;4616136;60;21099;-29
2022/08/04 21:36:05;;;;;;;9.98;9.07;;;28.30;46.80;;;;;;4736912;56;21038;-28
2022/08/04 21:41:06;;;;;;;9.90;9.00;;;28.40;46.90;;;;;;4645990;56;21035;-30
2022/08/04 21:46:07;;;;;;;10.65;9.63;;;28.40;47.00;;;;;;4730400;56;21023;-32
2022/08/04 21:51:30;;;;;;;9.40;8.50;;;28.30;46.90;;;;;;4685637;56;21513;-33
2022/08/04 21:56:31;;;;;;;9.68;8.70;;;28.40;47.10;;;;;;4774208;56;21525;-30
2022/08/04 22:01:32;;;;;;;9.88;8.98;;;28.30;47.10;;;;;;4636314;56;21023;-34
2022/08/04 22:06:32;;;;;;;9.70;8.80;;;28.40;47.30;;;;;;4803190;56;21490;-31
2022/08/04 22:11:35;;;;;;;9.13;8.27;;;28.40;47.30;;;;;;4932005;56;21086;-35
2022/08/04 22:16:36;;;;;;;10.70;9.18;;;28.40;47.50;;;;;;4675125;56;21050;-31
2022/08/04 22:21:37;;;;;;;10.13;9.10;;;28.40;47.30;;;;;;4659529;56;21030;-30
2022/08/04 22:26:38;;;;;;;9.27;8.48;;;28.40;47.40;;;;;;4756480;56;21075;-31
2022/08/04 22:31:38;;;;;;;9.57;8.68;;;28.40;47.50;;;;;;4817308;56;21157;-32
2022/08/04 22:36:39;;;;;;;9.98;8.98;;;28.30;47.50;;;;;;4625845;56;21505;-31
2022/08/04 22:41:40;;;;;;;9.70;8.80;;;28.30;47.50;;;;;;4616584;56;21027;-31
2022/08/04 22:46:41;;;;;;;9.75;8.85;;;28.40;47.70;;;;;;4849923;56;21478;-34
2022/08/04 22:51:42;;;;;;;10.07;9.07;;;28.30;47.80;;;;;;4766564;56;21031;-35
2022/08/04 22:56:43;;;;;;;9.43;8.52;;;28.40;47.80;;;;;;4656731;56;21043;-29
2022/08/04 23:01:43;;;;;;;9.52;8.73;;;28.40;48.00;;;;;;5028767;56;21549;-31
2022/08/04 23:06:44;;;;;;;8.82;8.05;;;28.40;48.00;;;;;;4647583;56;21079;-34
2022/08/04 23:11:45;;;;;;;8.43;7.60;;;28.40;48.10;;;;;;4676570;56;21681;-31
2022/08/04 23:16:46;;;;;;;8.90;8.10;;;28.40;48.00;;;;;;4937450;56;21020;-33
2022/08/04 23:21:47;;;;;;;9.43;8.60;;;28.40;48.00;;;;;;4616409;60;21019;-32
2022/08/04 23:26:48;;;;;;;9.32;8.43;;;28.40;48.20;;;;;;4652873;56;21063;-31
2022/08/04 23:31:49;;;;;;;8.52;7.72;;;28.40;48.20;;;;;;4670725;56;21588;-28
2022/08/04 23:36:50;;;;;;;8.80;7.90;;;28.40;48.30;;;;;;4719407;56;21155;-31
2022/08/04 23:41:50;;;;;;;9.18;8.27;;;28.40;48.30;;;;;;4675879;56;21108;-35
2022/08/04 23:47:02;;;;;;;9.15;8.27;;;28.40;48.40;;;;;;4616084;60;21163;-32
2022/08/04 23:52:04;;;;;;;8.95;8.15;;;28.40;48.40;;;;;;4862519;56;21132;-35
2022/08/04 23:57:05;;;;;;;8.30;7.60;;;28.40;48.50;;;;;;4735795;56;21624;-31
